Time;durP1;ratioP1;P1;durP2;ratioP2;P2;SDS_P1;SDS_P2;PMS_P1;PMS_P2;Temp;Humidity;BMP_temperature;BMP_pressure;BME280_temperature;BME280_humidity;BME280_pressure;Samples;Min_cycle;Max_cycle;Signal;HPM_P1;HPM_P2
2023/07/12 00:01:14;;;;;;;6.20;4.22;;;23.60;99.90;;;;;;5008229;28;20203;-81
2023/07/12 00:03:41;;;;;;;4.10;2.83;;;23.40;99.90;;;;;;5008863;28;20199;-81
2023/07/12 00:06:15;;;;;;;3.35;2.80;;;23.40;99.90;;;;;;5010375;28;20203;-81
2023/07/12 00:08:46;;;;;;;5.53;3.15;;;23.10;99.90;;;;;;5007738;28;20215;-81
2023/07/12 00:11:17;;;;;;;3.38;3.08;;;23.10;99.90;;;;;;5007736;28;20208;-81
2023/07/12 00:13:45;;;;;;;3.25;3.00;;;22.90;99.90;;;;;;5015864;28;20208;-81
2023/07/12 00:16:22;;;;;;;2.83;2.60;;;22.90;99.90;;;;;;5007644;28;20211;-82
2023/07/12 00:18:50;;;;;;;2.88;2.38;;;22.90;99.90;;;;;;4993016;28;20219;-81
2023/07/12 00:21:22;;;;;;;3.45;2.40;;;22.90;99.90;;;;;;5008803;28;20681;-81
2023/07/12 00:23:50;;;;;;;2.05;1.83;;;22.80;99.90;;;;;;4995202;28;20208;-81
2023/07/12 00:26:21;;;;;;;2.50;2.30;;;22.80;99.90;;;;;;5010191;28;20192;-81
2023/07/12 00:28:48;;;;;;;2.38;1.88;;;22.70;99.90;;;;;;5014586;28;20231;-81
2023/07/12 00:31:16;;;;;;;2.30;1.85;;;22.70;99.90;;;;;;4992848;28;20206;-81
2023/07/12 00:33:43;;;;;;;3.30;2.10;;;22.80;99.90;;;;;;5007117;28;20204;-81
2023/07/12 00:36:15;;;;;;;2.83;2.10;;;22.80;99.90;;;;;;5010886;28;20204;-81
2023/07/12 00:38:45;;;;;;;2.35;2.15;;;22.60;99.90;;;;;;5008827;28;20227;-81
2023/07/12 00:41:23;;;;;;;3.28;2.10;;;22.50;99.90;;;;;;5010116;28;20192;-81
2023/07/12 00:43:57;;;;;;;5.40;2.50;;;22.60;99.90;;;;;;5012463;28;20207;-81
2023/07/12 00:46:31;;;;;;;3.65;2.17;;;22.40;99.90;;;;;;5013758;28;20193;-81
2023/07/12 00:48:59;;;;;;;2.85;2.20;;;22.20;99.90;;;;;;5014002;28;20260;-81
2023/07/12 00:51:36;;;;;;;3.88;2.65;;;22.30;99.90;;;;;;5013491;28;20191;-81
2023/07/12 00:54:11;;;;;;;2.50;1.90;;;22.40;99.90;;;;;;5010112;28;20198;-81
2023/07/12 00:56:40;;;;;;;2.97;2.50;;;22.50;99.90;;;;;;5000876;28;20200;-81
2023/07/12 00:59:11;;;;;;;2.92;2.10;;;22.30;99.90;;;;;;5011910;28;20207;-81
2023/07/12 01:01:39;;;;;;;2.60;2.15;;;22.30;99.90;;;;;;5015837;28;20649;-81
2023/07/12 01:04:09;;;;;;;2.60;2.00;;;22.30;99.90;;;;;;4999024;28;20196;-81
2023/07/12 01:06:36;;;;;;;2.33;1.83;;;22.50;99.90;;;;;;5009793;28;20209;-81
2023/07/12 01:09:12;;;;;;;3.13;2.00;;;22.20;99.90;;;;;;4995654;28;20223;-81
2023/07/12 01:11:41;;;;;;;3.45;2.25;;;22.20;99.90;;;;;;5008064;28;20651;-81
2023/07/12 01:14:11;;;;;;;2.30;2.10;;;22.40;99.90;;;;;;5013828;28;20199;-81
2023/07/12 01:16:41;;;;;;;3.30;1.83;;;22.30;99.90;;;;;;5011778;28;20204;-81
2023/07/12 01:19:08;;;;;;;2.50;1.63;;;22.40;99.90;;;;;;4996530;28;20203;-81
2023/07/12 01:21:44;;;;;;;3.72;1.80;;;22.30;99.90;;;;;;5012722;28;20196;-81
2023/07/12 01:24:12;;;;;;;2.08;1.73;;;22.20;99.90;;;;;;5009847;28;20210;-81
2023/07/12 01:26:42;;;;;;;3.78;1.60;;;22.10;99.90;;;;;;4996030;28;20200;-81
2023/07/12 01:29:10;;;;;;;1.90;1.30;;;22.20;99.90;;;;;;5014745;28;20222;-81
2023/07/12 01:31:39;;;;;;;2.10;1.42;;;22.20;99.90;;;;;;4994201;28;20210;-81
2023/07/12 01:34:07;;;;;;;1.77;1.55;;;22.20;99.90;;;;;;4996638;28;20230;-81
2023/07/12 01:36:36;;;;;;;1.70;1.20;;;22.20;99.90;;;;;;5012680;28;20192;-81
2023/07/12 01:39:15;;;;;;;2.95;1.40;;;22.20;99.90;;;;;;5008870;28;20200;-81
2023/07/12 01:41:43;;;;;;;2.03;1.40;;;21.90;99.90;;;;;;5018783;28;20206;-81
2023/07/12 01:44:10;;;;;;;2.05;1.50;;;21.80;99.90;;;;;;5012246;28;20558;-81
2023/07/12 01:46:38;;;;;;;1.95;1.75;;;21.60;99.90;;;;;;5011686;28;20208;-81
2023/07/12 01:49:05;;;;;;;1.98;1.77;;;21.60;99.90;;;;;;5006084;28;20200;-81
2023/07/12 01:51:33;;;;;;;2.97;1.95;;;21.80;99.90;;;;;;5007550;28;20203;-81
2023/07/12 01:54:01;;;;;;;1.98;1.67;;;22.10;99.90;;;;;;5011661;28;20215;-81
2023/07/12 01:56:50;;;;;;;2.63;1.70;;;22.10;99.90;;;;;;5011779;28;20214;-81
2023/07/12 01:59:17;;;;;;;2.75;1.85;;;21.80;99.90;;;;;;4995692;28;20196;-81
2023/07/12 02:01:45;;;;;;;2.20;1.38;;;21.70;99.90;;;;;;4995719;28;20204;-81
2023/07/12 02:04:12;;;;;;;2.92;1.75;;;21.80;99.90;;;;;;5011133;28;20215;-81
2023/07/12 02:06:39;;;;;;;2.80;1.83;;;21.80;99.90;;;;;;4995614;28;20199;-81
2023/07/12 02:09:11;;;;;;;2.42;1.63;;;21.70;99.90;;;;;;5025858;28;20224;-81
2023/07/12 02:11:38;;;;;;;2.08;1.48;;;21.60;99.90;;;;;;5007757;28;20195;-81
2023/07/12 02:14:08;;;;;;;2.97;1.50;;;21.70;99.90;;;;;;5010114;28;20200;-81
2023/07/12 02:16:35;;;;;;;2.00;1.60;;;21.70;99.90;;;;;;5015484;28;20191;-81
2023/07/12 02:19:03;;;;;;;2.45;1.25;;;21.60;99.90;;;;;;5012121;28;20219;-81
2023/07/12 02:21:31;;;;;;;2.78;1.70;;;21.60;99.90;;;;;;5009635;28;20662;-81
2023/07/12 02:24:00;;;;;;;3.08;1.73;;;21.70;99.90;;;;;;5019337;28;20221;-81
2023/07/12 02:26:27;;;;;;;2.92;1.70;;;21.80;99.90;;;;;;5011793;28;20191;-81
2023/07/12 02:28:55;;;;;;;2.33;1.80;;;21.90;99.90;;;;;;5023448;28;20693;-82
2023/07/12 02:31:25;;;;;;;2.53;1.50;;;21.90;99.90;;;;;;5009792;28;20198;-81
2023/07/12 02:33:56;;;;;;;2.85;1.73;;;22.00;99.90;;;;;;5007902;28;20284;-81
2023/07/12 02:36:25;;;;;;;2.25;1.90;;;22.10;99.90;;;;;;5009807;28;20207;-81
2023/07/12 02:38:52;;;;;;;3.40;1.67;;;22.10;99.90;;;;;;5010507;28;20239;-82
2023/07/12 02:41:20;;;;;;;3.80;2.00;;;22.10;99.90;;;;;;5015526;28;20198;-81
2023/07/12 02:43:48;;;;;;;3.10;1.90;;;21.90;99.90;;;;;;4994276;28;20199;-81
2023/07/12 02:46:16;;;;;;;2.22;1.63;;;21.80;99.90;;;;;;5010449;28;20207;-81
2023/07/12 02:48:46;;;;;;;3.35;1.90;;;21.90;99.90;;;;;;5010832;28;20227;-80
2023/07/12 02:51:13;;;;;;;2.30;1.42;;;21.70;99.90;;;;;;5008797;28;20665;-81
2023/07/12 02:53:41;;;;;;;4.28;1.63;;;21.60;99.90;;;;;;4994207;28;20204;-81
2023/07/12 02:56:08;;;;;;;4.38;1.75;;;21.50;99.90;;;;;;5009705;28;20203;-81
2023/07/12 02:58:36;;;;;;;3.42;1.55;;;21.30;99.90;;;;;;5013227;28;20235;-81
2023/07/12 03:01:04;;;;;;;4.40;1.92;;;21.30;99.90;;;;;;5010136;28;20203;-81
2023/07/12 03:03:31;;;;;;;3.47;1.40;;;21.20;99.90;;;;;;5008609;28;20195;-81
2023/07/12 03:06:04;;;;;;;2.75;1.67;;;21.00;99.90;;;;;;5008008;28;20207;-80
2023/07/12 03:08:32;;;;;;;3.58;2.25;;;20.90;99.90;;;;;;5006764;28;20665;-81
2023/07/12 03:11:00;;;;;;;4.60;2.35;;;20.90;99.90;;;;;;4983041;28;20575;-81
2023/07/12 03:13:27;;;;;;;4.47;1.92;;;20.70;99.90;;;;;;4993747;28;20200;-81
2023/07/12 03:15:55;;;;;;;3.88;2.45;;;20.50;99.90;;;;;;5010250;28;20207;-81
2023/07/12 03:18:22;;;;;;;3.38;2.25;;;20.50;99.90;;;;;;5018238;28;20245;-81
2023/07/12 03:20:50;;;;;;;3.15;1.77;;;20.70;99.90;;;;;;5009392;28;20192;-81
2023/07/12 03:23:19;;;;;;;4.93;2.45;;;20.40;99.90;;;;;;5010334;28;20219;-81
2023/07/12 03:25:46;;;;;;;6.25;2.13;;;20.50;99.90;;;;;;5009909;28;20215;-81
2023/07/12 03:28:14;;;;;;;4.32;1.98;;;20.40;99.90;;;;;;5009566;28;20592;-81
2023/07/12 03:30:41;;;;;;;2.10;1.52;;;20.50;99.90;;;;;;5007410;28;20223;-81
2023/07/12 03:33:09;;;;;;;3.13;1.67;;;20.60;99.90;;;;;;5012039;28;20569;-81
2023/07/12 03:35:36;;;;;;;3.75;1.92;;;20.50;99.90;;;;;;4992867;28;20218;-81
2023/07/12 03:38:04;;;;;;;3.22;2.08;;;20.60;99.90;;;;;;4993287;28;20257;-81
2023/07/12 03:40:32;;;;;;;4.18;1.80;;;20.40;99.90;;;;;;5009756;28;20202;-81
2023/07/12 03:43:00;;;;;;;5.03;2.05;;;20.10;99.90;;;;;;4993526;28;20218;-81
2023/07/12 03:45:27;;;;;;;3.50;2.28;;;19.40;99.90;;;;;;4992765;28;20196;-81
2023/07/12 03:47:55;;;;;;;2.72;1.65;;;19.70;99.90;;;;;;5012089;28;20234;-81
2023/07/12 03:50:22;;;;;;;6.88;2.47;;;19.70;99.90;;;;;;5007552;28;20212;-81
2023/07/12 03:52:52;;;;;;;4.18;2.28;;;19.30;99.90;;;;;;4993693;28;20661;-81
2023/07/12 03:55:19;;;;;;;4.95;2.42;;;19.10;99.90;;;;;;5018361;28;20638;-80
2023/07/12 03:57:48;;;;;;;4.80;2.30;;;19.10;99.90;;;;;;4992733;28;20227;-81
2023/07/12 04:00:16;;;;;;;3.42;2.55;;;19.30;99.90;;;;;;4993236;28;20195;-81
2023/07/12 04:02:44;;;;;;;4.45;1.92;;;19.50;99.90;;;;;;5017633;28;20556;-81
2023/07/12 04:05:11;;;;;;;3.38;2.20;;;19.70;99.90;;;;;;4996372;28;20203;-81
2023/07/12 04:07:39;;;;;;;2.92;1.83;;;19.90;99.90;;;;;;5013193;28;20227;-80
2023/07/12 04:10:08;;;;;;;3.78;2.20;;;20.20;99.90;;;;;;5013149;28;20235;-80
2023/07/12 04:12:58;;;;;;;4.28;2.40;;;20.30;99.90;;;;;;5011455;28;20211;-81
2023/07/12 04:15:26;;;;;;;3.35;2.40;;;20.20;99.90;;;;;;4997674;28;20210;-81
2023/07/12 04:17:53;;;;;;;5.03;2.30;;;20.20;99.90;;;;;;5000726;28;20231;-80
2023/07/12 04:20:23;;;;;;;4.18;2.10;;;20.30;99.90;;;;;;5012608;28;20191;-81
2023/07/12 04:22:51;;;;;;;3.17;2.17;;;20.50;99.90;;;;;;5013665;28;20204;-81
2023/07/12 04:25:19;;;;;;;2.67;2.13;;;20.60;99.90;;;;;;5015569;28;20200;-80
2023/07/12 04:27:46;;;;;;;3.58;1.98;;;20.50;99.90;;;;;;5014027;28;20258;-80
2023/07/12 04:30:17;;;;;;;4.78;2.55;;;20.50;99.90;;;;;;4996522;28;20212;-80
2023/07/12 04:32:52;;;;;;;4.03;2.40;;;20.20;99.90;;;;;;4999535;28;20535;-81
2023/07/12 04:35:20;;;;;;;5.70;2.30;;;20.10;99.90;;;;;;5016436;28;20206;-81
2023/07/12 04:37:48;;;;;;;5.50;2.53;;;19.90;99.90;;;;;;4998654;28;20219;-81
2023/07/12 04:40:16;;;;;;;4.70;2.42;;;20.00;99.90;;;;;;5012925;28;20211;-81
2023/07/12 04:42:59;;;;;;;4.70;2.63;;;19.90;99.90;;;;;;4996144;28;20207;-81
2023/07/12 04:45:29;;;;;;;4.97;2.20;;;19.80;99.90;;;;;;5013020;28;20212;-81
2023/07/12 04:48:00;;;;;;;3.03;2.10;;;19.70;99.90;;;;;;4997460;28;20588;-80
2023/07/12 04:50:34;;;;;;;3.35;2.38;;;19.80;99.90;;;;;;5012121;28;20214;-81
2023/07/12 04:53:02;;;;;;;3.58;2.13;;;19.60;99.90;;;;;;5018840;28;20198;-79
2023/07/12 04:55:30;;;;;;;3.78;2.05;;;19.90;99.90;;;;;;4997974;28;20211;-79
2023/07/12 04:57:58;;;;;;;4.82;1.92;;;20.00;99.90;;;;;;5017988;28;20219;-79
2023/07/12 05:00:26;;;;;;;3.90;2.10;;;19.50;99.90;;;;;;5013956;28;20192;-79
2023/07/12 05:02:55;;;;;;;4.28;1.90;;;19.50;99.90;;;;;;4997967;28;20211;-79
2023/07/12 05:05:23;;;;;;;2.75;1.70;;;19.20;99.90;;;;;;4997877;28;20195;-79
2023/07/12 05:07:50;;;;;;;2.33;1.40;;;19.30;99.90;;;;;;5012552;28;20235;-79
2023/07/12 05:10:18;;;;;;;2.65;1.55;;;19.10;99.90;;;;;;5011812;28;20212;-79
2023/07/12 05:12:46;;;;;;;1.88;1.50;;;19.00;99.90;;;;;;4998052;28;20210;-79
2023/07/12 05:15:14;;;;;;;3.78;1.50;;;18.80;99.90;;;;;;4995661;28;20211;-79
2023/07/12 05:17:41;;;;;;;2.28;1.85;;;18.90;99.90;;;;;;5013892;28;20224;-79
2023/07/12 05:20:13;;;;;;;4.40;1.55;;;19.00;99.90;;;;;;5013659;28;20196;-79
2023/07/12 05:22:41;;;;;;;1.95;1.40;;;18.90;99.90;;;;;;5013890;28;20200;-79
2023/07/12 05:25:09;;;;;;;2.17;1.40;;;19.10;99.90;;;;;;5012233;28;20208;-79
2023/07/12 05:27:37;;;;;;;1.98;1.55;;;19.00;99.90;;;;;;5012236;28;20223;-79
2023/07/12 05:30:05;;;;;;;2.42;1.50;;;18.70;99.90;;;;;;5010016;28;20227;-79
2023/07/12 05:32:32;;;;;;;1.50;1.30;;;18.70;99.90;;;;;;5014471;28;20207;-79
2023/07/12 05:35:00;;;;;;;2.00;1.40;;;18.70;99.90;;;;;;5013997;28;20207;-79
2023/07/12 05:37:29;;;;;;;2.70;1.13;;;18.90;99.90;;;;;;4998142;28;20243;-79
2023/07/12 05:39:56;;;;;;;1.45;1.10;;;18.60;99.90;;;;;;5017116;28;20204;-79
2023/07/12 05:42:28;;;;;;;3.47;1.80;;;18.70;99.90;;;;;;5013742;28;20210;-79
2023/07/12 05:44:56;;;;;;;1.92;1.48;;;18.70;99.90;;;;;;4998725;28;20208;-79
2023/07/12 05:47:23;;;;;;;3.75;1.27;;;18.80;99.90;;;;;;4998311;28;20590;-79
2023/07/12 05:49:51;;;;;;;1.60;1.30;;;18.90;99.90;;;;;;5014051;28;20681;-79
2023/07/12 05:52:18;;;;;;;2.80;1.38;;;19.00;99.90;;;;;;4995213;28;20204;-79
2023/07/12 05:54:47;;;;;;;1.77;1.13;;;18.80;99.90;;;;;;4995380;28;20214;-79
2023/07/12 05:57:14;;;;;;;1.60;1.50;;;18.80;99.90;;;;;;4996981;28;20690;-79
2023/07/12 05:59:42;;;;;;;1.58;1.40;;;18.80;99.90;;;;;;5011959;28;20646;-79
2023/07/12 06:02:13;;;;;;;2.58;1.40;;;18.70;99.90;;;;;;5013333;28;20195;-79
2023/07/12 06:04:56;;;;;;;5.20;1.85;;;18.70;99.90;;;;;;5019688;28;20199;-79
2023/07/12 06:07:23;;;;;;;2.45;1.58;;;18.50;99.90;;;;;;5028304;28;20226;-79
2023/07/12 06:09:52;;;;;;;1.92;1.52;;;18.50;99.90;;;;;;5011778;28;20200;-79
2023/07/12 06:12:20;;;;;;;2.33;1.70;;;18.40;99.90;;;;;;5009727;28;20211;-79
2023/07/12 06:14:47;;;;;;;4.18;1.50;;;18.50;99.90;;;;;;5011613;28;20203;-79
2023/07/12 06:17:20;;;;;;;3.35;1.73;;;18.50;99.90;;;;;;5011848;28;20222;-80
2023/07/12 06:19:47;;;;;;;2.05;1.75;;;18.50;99.90;;;;;;4996524;28;20203;-80
2023/07/12 06:22:14;;;;;;;3.50;1.73;;;18.40;99.90;;;;;;5020296;28;20569;-80
2023/07/12 06:24:42;;;;;;;4.28;2.00;;;18.40;99.90;;;;;;4996465;28;20208;-80
2023/07/12 06:27:11;;;;;;;3.15;1.83;;;18.30;99.90;;;;;;5001011;28;20219;-80
2023/07/12 06:29:45;;;;;;;2.55;1.90;;;18.40;99.90;;;;;;4995735;28;20212;-80
2023/07/12 06:32:13;;;;;;;2.70;2.05;;;18.40;99.90;;;;;;5012710;28;20219;-80
2023/07/12 06:34:41;;;;;;;2.13;1.70;;;18.50;99.90;;;;;;5007849;28;20211;-81
2023/07/12 06:37:09;;;;;;;2.50;1.88;;;18.60;99.90;;;;;;5010881;28;20215;-81
2023/07/12 06:39:37;;;;;;;4.55;2.30;;;18.60;99.90;;;;;;4993794;28;20208;-80
2023/07/12 06:42:05;;;;;;;3.17;2.20;;;18.50;99.90;;;;;;5010974;28;20195;-80
2023/07/12 06:44:35;;;;;;;3.55;2.25;;;18.70;99.90;;;;;;4993413;28;20203;-79
2023/07/12 06:47:03;;;;;;;4.55;3.30;;;18.70;99.90;;;;;;5008638;28;20220;-80
2023/07/12 06:49:31;;;;;;;3.40;2.38;;;18.90;99.90;;;;;;5013931;28;20211;-80
2023/07/12 06:51:58;;;;;;;3.45;2.53;;;18.90;99.90;;;;;;5000298;28;20203;-80
2023/07/12 06:54:26;;;;;;;3.25;2.92;;;18.90;99.90;;;;;;5012657;28;20200;-80
2023/07/12 06:56:53;;;;;;;4.40;2.75;;;18.90;99.90;;;;;;5012645;28;20207;-80
2023/07/12 06:59:20;;;;;;;6.53;3.15;;;19.20;99.90;;;;;;4995753;28;20191;-80
2023/07/12 07:01:49;;;;;;;5.40;2.83;;;18.90;99.90;;;;;;4996515;28;20195;-80
2023/07/12 07:04:17;;;;;;;5.50;3.05;;;18.50;99.90;;;;;;5013726;28;20198;-80
2023/07/12 07:06:44;;;;;;;5.25;2.92;;;18.50;99.90;;;;;;5012558;28;20199;-80
2023/07/12 07:09:12;;;;;;;8.00;4.07;;;18.70;99.90;;;;;;5012845;28;20199;-80
2023/07/12 07:11:48;;;;;;;6.20;2.75;;;19.00;99.90;;;;;;4997652;28;20226;-80
2023/07/12 07:14:16;;;;;;;3.20;2.22;;;18.90;99.90;;;;;;5018661;28;20191;-79
2023/07/12 07:16:43;;;;;;;5.13;2.85;;;18.90;99.90;;;;;;5007405;28;20199;-80
2023/07/12 07:19:12;;;;;;;5.40;2.72;;;18.80;99.90;;;;;;5011928;28;20203;-80
2023/07/12 07:21:42;;;;;;;6.28;3.17;;;19.10;99.90;;;;;;5008066;28;20588;-81
2023/07/12 07:24:09;;;;;;;4.43;2.10;;;19.40;99.90;;;;;;5010278;28;20196;-81
2023/07/12 07:26:47;;;;;;;4.70;2.30;;;19.30;99.90;;;;;;4993571;28;20214;-81
2023/07/12 07:29:14;;;;;;;3.40;2.20;;;19.00;99.90;;;;;;5008782;28;20199;-81
2023/07/12 07:31:42;;;;;;;4.28;2.25;;;19.40;99.90;;;;;;5009510;28;20224;-81
2023/07/12 07:34:09;;;;;;;4.18;1.90;;;19.20;99.90;;;;;;5009614;28;20203;-80
2023/07/12 07:36:38;;;;;;;3.30;2.08;;;19.40;99.90;;;;;;5010455;28;20199;-79
2023/07/12 07:39:05;;;;;;;4.22;2.40;;;19.70;99.90;;;;;;5010917;28;20222;-79
2023/07/12 07:41:33;;;;;;;4.20;1.88;;;19.70;99.90;;;;;;5014968;28;20202;-80
2023/07/12 07:44:01;;;;;;;6.57;2.22;;;19.90;99.90;;;;;;4999199;28;20206;-78
2023/07/12 07:46:28;;;;;;;3.67;2.00;;;19.80;99.90;;;;;;5013949;28;20208;-78
2023/07/12 07:48:55;;;;;;;8.40;2.28;;;19.90;99.90;;;;;;5029694;28;20223;-78
2023/07/12 07:51:26;;;;;;;3.25;2.30;;;19.60;99.90;;;;;;5014198;28;20220;-78
2023/07/12 07:53:59;;;;;;;4.93;1.90;;;19.70;99.90;;;;;;5014911;28;20551;-78
2023/07/12 07:56:27;;;;;;;3.10;2.38;;;20.00;99.90;;;;;;5014740;28;20207;-78
2023/07/12 07:59:32;;;;;;;5.85;2.33;;;19.90;99.90;;;;;;4998386;28;20231;-78
2023/07/12 08:02:00;;;;;;;5.65;2.00;;;19.80;99.90;;;;;;5013564;28;20206;-78
2023/07/12 08:04:28;;;;;;;5.30;2.20;;;19.80;99.90;;;;;;5014119;28;20195;-78
2023/07/12 08:06:56;;;;;;;3.90;2.08;;;19.80;99.90;;;;;;4997248;28;20206;-81
2023/07/12 08:09:25;;;;;;;3.08;2.22;;;20.10;99.90;;;;;;5016151;28;20662;-80
2023/07/12 08:11:56;;;;;;;6.10;2.30;;;20.30;99.90;;;;;;4975613;28;20224;-80
2023/07/12 08:14:24;;;;;;;4.95;2.20;;;20.40;99.90;;;;;;5016923;28;20187;-81
2023/07/12 08:16:52;;;;;;;7.20;2.33;;;19.80;99.90;;;;;;5015178;28;20211;-81
2023/07/12 08:19:19;;;;;;;5.25;2.85;;;19.50;99.90;;;;;;5014282;28;20187;-79
2023/07/12 08:21:47;;;;;;;2.88;1.95;;;19.40;99.90;;;;;;5013102;28;20210;-83
2023/07/12 08:24:15;;;;;;;3.05;2.15;;;19.70;99.90;;;;;;5013626;28;20200;-82
2023/07/12 08:26:43;;;;;;;3.97;1.90;;;20.30;99.90;;;;;;5012616;28;20207;-80
2023/07/12 08:29:11;;;;;;;2.95;1.85;;;20.40;99.90;;;;;;5014702;28;20202;-82
2023/07/12 08:31:38;;;;;;;3.15;1.90;;;20.40;99.90;;;;;;5012878;28;20215;-81
2023/07/12 08:34:06;;;;;;;4.30;2.50;;;20.10;99.90;;;;;;5012183;28;20200;-80
2023/07/12 08:36:33;;;;;;;3.08;1.98;;;20.30;99.90;;;;;;5014408;28;20199;-81
2023/07/12 08:39:01;;;;;;;2.97;2.22;;;20.40;99.90;;;;;;5014721;28;20224;-81
2023/07/12 08:41:29;;;;;;;3.75;2.40;;;20.50;99.90;;;;;;5031538;28;20195;-81
2023/07/12 08:44:13;;;;;;;3.67;1.83;;;20.60;99.90;;;;;;5017521;28;20204;-80
2023/07/12 08:46:46;;;;;;;4.38;1.80;;;20.30;99.90;;;;;;5018443;28;20196;-81
2023/07/12 08:49:16;;;;;;;3.63;2.20;;;20.20;99.90;;;;;;5013225;28;20215;-80
2023/07/12 08:51:44;;;;;;;2.72;1.80;;;20.00;99.90;;;;;;5010898;28;20223;-80
2023/07/12 08:54:24;;;;;;;4.15;2.30;;;20.20;99.90;;;;;;5014185;28;20199;-80
2023/07/12 08:57:01;;;;;;;6.90;2.20;;;20.20;99.90;;;;;;5018268;28;20210;-80
2023/07/12 08:59:31;;;;;;;4.57;2.15;;;20.30;99.90;;;;;;5013710;28;20207;-80
2023/07/12 09:02:00;;;;;;;3.30;2.03;;;20.80;99.90;;;;;;5015201;28;20207;-80
2023/07/12 09:04:31;;;;;;;4.30;2.30;;;20.50;99.90;;;;;;5007953;28;20204;-80
2023/07/12 09:07:02;;;;;;;3.97;2.28;;;20.40;99.90;;;;;;5013584;28;20195;-80
2023/07/12 09:09:35;;;;;;;7.47;2.70;;;20.40;99.90;;;;;;4996097;28;20191;-80
2023/07/12 09:12:05;;;;;;;4.40;2.67;;;20.30;99.90;;;;;;5000728;28;20572;-80
2023/07/12 09:14:37;;;;;;;5.30;2.17;;;20.20;99.90;;;;;;5000308;28;20199;-80
2023/07/12 09:17:24;;;;;;;7.20;2.25;;;20.30;99.90;;;;;;5017185;28;20583;-80
2023/07/12 09:19:52;;;;;;;2.85;2.03;;;20.40;99.90;;;;;;5035330;28;20175;-80
2023/07/12 09:22:32;;;;;;;5.15;2.65;;;20.80;99.90;;;;;;5021840;28;20694;-80
2023/07/12 09:24:59;;;;;;;4.65;2.47;;;20.70;99.90;;;;;;5010880;28;20218;-79
2023/07/12 09:27:28;;;;;;;2.83;2.15;;;20.60;99.90;;;;;;5018166;28;20231;-80
2023/07/12 09:30:02;;;;;;;3.55;2.25;;;20.50;99.90;;;;;;5017452;28;20211;-80
2023/07/12 09:32:33;;;;;;;4.60;2.28;;;20.60;99.90;;;;;;5013256;28;20229;-80
2023/07/12 09:35:02;;;;;;;4.80;2.63;;;20.70;99.90;;;;;;5001447;28;20199;-80
2023/07/12 09:37:36;;;;;;;5.00;2.45;;;20.80;99.90;;;;;;5012537;28;20220;-80
2023/07/12 09:40:14;;;;;;;8.27;2.30;;;20.90;99.90;;;;;;4997346;28;20200;-80
2023/07/12 09:42:47;;;;;;;2.53;2.33;;;20.70;99.90;;;;;;5013462;28;20207;-80
2023/07/12 09:45:16;;;;;;;3.20;2.15;;;20.70;99.90;;;;;;5013767;28;20569;-80
2023/07/12 09:47:49;;;;;;;4.60;2.47;;;20.70;99.90;;;;;;5010192;28;20212;-81
2023/07/12 09:50:49;;;;;;;3.00;2.30;;;20.90;99.90;;;;;;5007304;28;20211;-80
2023/07/12 09:53:34;;;;;;;4.50;2.47;;;21.10;99.90;;;;;;5012655;28;20215;-80
2023/07/12 09:56:12;;;;;;;3.38;2.83;;;21.30;99.90;;;;;;4996409;28;20191;-80
2023/07/12 09:58:45;;;;;;;3.03;2.25;;;21.30;99.90;;;;;;4992808;28;20216;-80
2023/07/12 10:01:25;;;;;;;5.10;2.35;;;21.40;99.90;;;;;;5014007;28;20651;-80
2023/07/12 10:03:55;;;;;;;4.38;2.33;;;21.40;99.90;;;;;;5009724;28;20199;-80
2023/07/12 10:06:32;;;;;;;6.45;2.40;;;21.30;99.90;;;;;;5010925;28;20222;-79
2023/07/12 10:09:07;;;;;;;4.75;2.53;;;21.40;99.90;;;;;;5009612;28;20219;-80
2023/07/12 10:11:43;;;;;;;4.05;2.20;;;21.40;99.90;;;;;;5011160;28;20210;-80
2023/07/12 10:14:14;;;;;;;3.78;2.08;;;21.50;99.90;;;;;;5010324;28;20213;-80
2023/07/12 10:16:47;;;;;;;5.15;2.10;;;21.50;99.90;;;;;;5009896;28;20199;-80
2023/07/12 10:19:19;;;;;;;4.22;2.00;;;21.20;99.90;;;;;;4992691;28;20203;-80
2023/07/12 10:21:47;;;;;;;5.50;2.08;;;21.20;99.90;;;;;;5010870;28;20601;-81
2023/07/12 10:24:17;;;;;;;3.22;2.13;;;21.30;99.90;;;;;;5007626;28;20203;-80
2023/07/12 10:26:45;;;;;;;5.15;1.90;;;21.40;99.90;;;;;;5011757;28;20199;-81
2023/07/12 10:29:33;;;;;;;6.90;2.33;;;21.70;99.90;;;;;;5007573;28;20204;-80
2023/07/12 10:32:05;;;;;;;3.25;1.77;;;21.80;99.90;;;;;;5009441;28;20206;-80
2023/07/12 10:34:37;;;;;;;2.70;1.70;;;21.70;99.90;;;;;;5010165;28;20196;-81
2023/07/12 10:37:11;;;;;;;3.72;1.80;;;21.80;99.90;;;;;;4993948;28;20203;-80
2023/07/12 10:39:38;;;;;;;2.70;1.83;;;21.70;99.90;;;;;;4993988;28;20676;-81
2023/07/12 10:42:12;;;;;;;3.58;2.10;;;22.00;99.90;;;;;;4993622;28;20203;-78
2023/07/12 10:44:46;;;;;;;6.03;2.15;;;21.50;99.90;;;;;;5005574;28;20216;-80
2023/07/12 10:47:19;;;;;;;3.72;1.75;;;21.70;99.90;;;;;;5010109;28;20704;-80
2023/07/12 10:49:53;;;;;;;4.35;1.50;;;21.90;99.90;;;;;;5010111;28;20557;-81
2023/07/12 10:52:28;;;;;;;2.88;1.40;;;22.00;99.90;;;;;;5023303;28;20210;-80
2023/07/12 10:55:18;;;;;;;5.60;1.83;;;22.20;99.90;;;;;;5020097;28;20215;-81
2023/07/12 10:57:48;;;;;;;3.70;1.92;;;22.60;99.90;;;;;;5010416;28;20220;-81
2023/07/12 11:00:49;;;;;;;4.03;2.15;;;22.50;99.90;;;;;;4993336;28;20666;-79
2023/07/12 11:03:21;;;;;;;4.00;1.80;;;22.70;99.90;;;;;;5006879;28;20195;-81
2023/07/12 11:06:04;;;;;;;3.60;1.60;;;23.00;99.90;;;;;;5010142;28;20199;-81
2023/07/12 11:08:55;;;;;;;2.50;1.40;;;22.80;99.50;;;;;;4982521;28;20226;-81
2023/07/12 11:12:15;;;;;;;3.63;1.50;;;22.80;99.60;;;;;;4992936;28;20207;-81
2023/07/12 11:14:51;;;;;;;2.85;1.52;;;22.30;99.90;;;;;;4986634;28;20227;-81
2023/07/12 11:17:21;;;;;;;2.63;1.60;;;22.20;99.90;;;;;;5001240;28;20580;-81
2023/07/12 11:20:09;;;;;;;2.88;1.58;;;22.10;99.90;;;;;;5010919;28;20207;-81
2023/07/12 11:22:55;;;;;;;2.47;1.42;;;21.90;99.90;;;;;;5012502;28;20211;-80
2023/07/12 11:25:40;;;;;;;4.30;1.75;;;22.10;99.90;;;;;;4994836;28;20195;-79
2023/07/12 11:28:29;;;;;;;3.85;1.77;;;22.30;99.90;;;;;;4993317;28;20238;-80
2023/07/12 11:31:19;;;;;;;4.32;1.77;;;22.30;99.90;;;;;;4991059;28;20226;-79
2023/07/12 11:33:51;;;;;;;3.80;1.80;;;22.50;99.90;;;;;;5011443;28;20203;-81
2023/07/12 11:36:23;;;;;;;3.53;1.73;;;22.70;99.90;;;;;;4995669;28;20208;-81
2023/07/12 11:38:53;;;;;;;2.63;1.70;;;22.60;99.90;;;;;;5010787;28;20772;-81
2023/07/12 11:41:24;;;;;;;2.60;1.45;;;22.80;99.90;;;;;;5010256;28;20199;-79
2023/07/12 11:43:59;;;;;;;3.22;1.60;;;22.70;99.90;;;;;;5005976;28;20200;-79
2023/07/12 11:46:30;;;;;;;2.97;1.40;;;22.90;99.90;;;;;;5009190;28;20564;-81
2023/07/12 11:49:02;;;;;;;4.15;1.80;;;22.80;99.30;;;;;;4998153;28;20242;-81
2023/07/12 11:51:36;;;;;;;2.47;1.58;;;23.00;99.60;;;;;;5007471;28;20211;-81
2023/07/12 11:54:18;;;;;;;4.00;1.90;;;22.80;98.80;;;;;;4992032;28;20214;-81
2023/07/12 11:56:47;;;;;;;2.85;1.80;;;22.80;98.90;;;;;;5010641;28;20196;-79
2023/07/12 11:59:15;;;;;;;4.68;1.90;;;22.80;99.90;;;;;;4993467;28;20195;-81
2023/07/12 12:01:43;;;;;;;3.13;1.85;;;22.50;99.60;;;;;;5010437;28;20218;-81
2023/07/12 12:04:20;;;;;;;2.95;1.65;;;22.80;99.90;;;;;;4992145;28;20231;-81
2023/07/12 12:06:56;;;;;;;3.17;1.70;;;22.60;97.80;;;;;;5001449;28;20211;-79
2023/07/12 12:09:57;;;;;;;4.10;1.65;;;22.70;98.10;;;;;;4995165;28;20234;-81
2023/07/12 12:12:30;;;;;;;4.00;1.67;;;22.60;97.40;;;;;;5009653;28;20218;-81
2023/07/12 12:14:58;;;;;;;2.60;1.40;;;22.70;97.70;;;;;;4993876;28;20227;-82
2023/07/12 12:17:27;;;;;;;2.33;1.30;;;22.90;97.20;;;;;;5009772;28;20235;-81
2023/07/12 12:20:04;;;;;;;3.15;1.52;;;23.20;96.60;;;;;;5009723;28;20204;-81
2023/07/12 12:22:33;;;;;;;2.78;1.80;;;23.40;96.40;;;;;;5008419;28;20701;-81
2023/07/12 12:25:01;;;;;;;2.95;1.90;;;23.40;95.80;;;;;;5018630;28;20669;-81
2023/07/12 12:27:35;;;;;;;3.13;1.67;;;23.80;95.60;;;;;;5012732;28;20223;-82
2023/07/12 12:30:19;;;;;;;3.72;1.83;;;23.80;93.70;;;;;;5015215;28;20207;-82
2023/07/12 12:33:04;;;;;;;1.52;1.10;;;23.80;92.10;;;;;;5012758;28;20204;-82
2023/07/12 12:35:32;;;;;;;2.13;1.45;;;23.80;91.70;;;;;;5012037;28;20658;-82
2023/07/12 12:38:12;;;;;;;4.00;1.58;;;23.80;91.60;;;;;;4999014;28;20224;-82
2023/07/12 12:40:49;;;;;;;3.53;1.50;;;24.00;92.00;;;;;;4999587;28;20198;-82
2023/07/12 12:43:20;;;;;;;4.70;1.50;;;23.80;90.90;;;;;;5016569;28;20199;-82
2023/07/12 12:45:48;;;;;;;4.70;1.30;;;24.10;90.00;;;;;;5014150;28;20207;-82
2023/07/12 12:48:16;;;;;;;2.53;1.38;;;24.10;90.30;;;;;;4997920;28;20575;-82
2023/07/12 12:50:43;;;;;;;3.03;1.45;;;23.80;90.20;;;;;;5009323;28;20600;-82
2023/07/12 12:53:13;;;;;;;1.83;1.20;;;24.10;88.60;;;;;;5013589;28;20211;-82
2023/07/12 12:55:41;;;;;;;3.15;1.38;;;24.50;88.00;;;;;;5020532;28;20203;-82
2023/07/12 12:58:11;;;;;;;1.88;1.10;;;24.10;88.10;;;;;;5020389;28;20234;-81
2023/07/12 13:00:39;;;;;;;3.17;1.30;;;24.20;90.00;;;;;;5019255;28;20207;-81
2023/07/12 13:03:07;;;;;;;5.07;1.20;;;24.40;89.70;;;;;;5001299;28;20219;-80
2023/07/12 13:05:34;;;;;;;3.03;1.30;;;24.60;87.60;;;;;;5017734;28;20203;-81
2023/07/12 13:08:04;;;;;;;2.28;1.10;;;24.10;87.40;;;;;;5016513;28;20231;-80